Time,TemperatureF,DewpointF,PressureIn,WindDirection,WindDirectionDegrees,WindSpeedMPH,WindSpeedGustMPH,Humidity,HourlyPrecipIn,Conditions,Clouds,dailyrainin,SolarRadiationWatts/m^2,SoftwareType,DateUTC
2013-05-26 00:14:00,49.6,43.0,30.20,East,86,0.0,0.0,79,0.00,,,0.00,0,weatherlink.com 1.10,2013-05-26 04:14:00,
2013-05-26 00:29:00,48.5,43.0,30.21,East,86,0.0,2.0,82,0.00,,,0.00,0,weatherlink.com 1.10,2013-05-26 04:29:00,
2013-05-26 00:44:00,47.8,43.0,30.21,East,86,0.0,1.0,83,0.00,,,0.00,0,weatherlink.com 1.10,2013-05-26 04:44:00,
2013-05-26 00:59:00,47.6,42.0,30.21,East,86,0.0,2.0,82,0.00,,,0.00,0,weatherlink.com 1.10,2013-05-26 04:59:00,
2013-05-26 01:14:00,47.5,42.0,30.21,East,86,0.0,2.0,82,0.00,,,0.00,0,weatherlink.com 1.10,2013-05-26 05:14:00,
2013-05-26 01:29:00,46.8,42.0,30.20,East,86,0.0,0.0,83,0.00,,,0.00,0,weatherlink.com 1.10,2013-05-26 05:29:00,
2013-05-26 01:44:00,46.7,43.0,30.20,East,86,0.0,0.0,85,0.00,,,0.00,0,weatherlink.com 1.10,2013-05-26 05:44:00,
2013-05-26 01:59:00,47.1,44.0,30.20,East,86,1.0,2.0,87,0.00,,,0.00,0,weatherlink.com 1.10,2013-05-26 05:59:00,
2013-05-26 02:14:00,48.1,43.0,30.19,East,86,0.0,0.0,83,0.00,,,0.00,0,weatherlink.com 1.10,2013-05-26 06:14:00,
2013-05-26 02:30:00,48.6,43.0,30.19,East,86,0.0,1.0,82,0.00,,,0.00,0,weatherlink.com 1.10,2013-05-26 06:30:00,
2013-05-26 02:45:00,48.8,45.0,30.19,East,86,0.0,2.0,87,0.00,,,0.00,0,weatherlink.com 1.10,2013-05-26 06:45:00,
2013-05-26 03:00:00,49.0,45.0,30.19,East,86,0.0,0.0,86,0.00,,,0.00,0,weatherlink.com 1.10,2013-05-26 07:00:00,
2013-05-26 03:15:00,49.0,44.0,30.19,East,86,0.0,2.0,84,0.00,,,0.00,0,weatherlink.com 1.10,2013-05-26 07:15:00,
2013-05-26 03:30:00,48.9,44.0,30.19,East,86,0.0,0.0,82,0.00,,,0.00,0,weatherlink.com 1.10,2013-05-26 07:30:00,
2013-05-26 03:45:00,48.8,44.0,30.18,East,86,1.0,3.0,83,0.00,,,0.00,0,weatherlink.com 1.10,2013-05-26 07:45:00,
2013-05-26 04:00:00,48.1,44.0,30.19,NNE,17,0.0,3.0,85,0.00,,,0.00,0,weatherlink.com 1.10,2013-05-26 08:00:00,
2013-05-26 04:15:00,47.9,44.0,30.18,NNE,17,0.0,2.0,87,0.00,,,0.00,0,weatherlink.com 1.10,2013-05-26 08:15:00,
2013-05-26 04:30:00,47.3,44.0,30.19,ESE,109,0.0,2.0,87,0.00,,,0.00,0,weatherlink.com 1.10,2013-05-26 08:30:00,
2013-05-26 04:45:00,46.6,43.0,30.19,ESE,109,0.0,2.0,88,0.00,,,0.00,0,weatherlink.com 1.10,2013-05-26 08:45:00,
2013-05-26 05:00:00,45.8,43.0,30.20,ESE,109,0.0,0.0,88,0.00,,,0.00,0,weatherlink.com 1.10,2013-05-26 09:00:00,
2013-05-26 05:15:00,45.3,43.0,30.20,ESE,109,0.0,2.0,90,0.00,,,0.00,0,weatherlink.com 1.10,2013-05-26 09:15:00,
2013-05-26 05:30:00,45.3,42.0,30.21,ESE,109,0.0,2.0,89,0.00,,,0.00,0,weatherlink.com 1.10,2013-05-26 09:30:00,
2013-05-26 05:45:00,44.9,42.0,30.22,ESE,109,0.0,0.0,90,0.00,,,0.00,0,weatherlink.com 1.10,2013-05-26 09:45:00,
2013-05-26 06:00:00,44.8,42.0,30.22,ESE,109,0.0,0.0,91,0.00,,,0.00,0,weatherlink.com 1.10,2013-05-26 10:00:00,
2013-05-26 06:15:00,45.8,44.0,30.23,West,271,0.0,1.0,92,0.00,,,0.00,0,weatherlink.com 1.10,2013-05-26 10:15:00,
2013-05-26 06:30:00,46.1,43.0,30.24,ESE,116,0.0,4.0,89,0.00,,,0.00,0,weatherlink.com 1.10,2013-05-26 10:30:00,
2013-05-26 06:45:00,46.6,44.0,30.25,NE,51,0.0,0.0,91,0.00,,,0.00,9,weatherlink.com 1.10,2013-05-26 10:45:00,
2013-05-26 07:00:00,47.1,44.0,30.25,ESE,105,0.0,1.0,90,0.00,,,0.00,16,weatherlink.com 1.10,2013-05-26 11:00:00,
2013-05-26 07:15:00,47.8,45.0,30.26,ESE,111,0.0,0.0,90,0.00,,,0.00,23,weatherlink.com 1.10,2013-05-26 11:15:00,
2013-05-26 07:30:00,48.7,46.0,30.26,NW,325,0.0,1.0,90,0.00,,,0.00,42,weatherlink.com 1.10,2013-05-26 11:30:00,
2013-05-26 07:45:00,49.4,47.0,30.26,ESE,113,0.0,3.0,90,0.00,,,0.00,74,weatherlink.com 1.10,2013-05-26 11:45:00,
2013-05-26 08:00:00,49.7,46.0,30.27,ENE,65,0.0,3.0,88,0.00,,,0.00,58,weatherlink.com 1.10,2013-05-26 12:00:00,
2013-05-26 08:15:00,50.5,47.0,30.26,ENE,71,0.0,1.0,88,0.00,,,0.00,47,weatherlink.com 1.10,2013-05-26 12:15:00,
2013-05-26 08:30:00,50.9,47.0,30.26,ENE,64,1.0,2.0,85,0.00,,,0.00,123,weatherlink.com 1.10,2013-05-26 12:30:00,
2013-05-26 08:45:00,52.3,48.0,30.25,South,189,1.0,4.0,84,0.00,,,0.00,135,weatherlink.com 1.10,2013-05-26 12:45:00,
2013-05-26 09:00:00,53.8,48.0,30.25,NNE,13,2.0,3.0,80,0.00,,,0.00,156,weatherlink.com 1.10,2013-05-26 13:00:00,
2013-05-26 09:15:00,54.8,49.0,30.25,NW,318,2.0,3.0,80,0.00,,,0.00,283,weatherlink.com 1.10,2013-05-26 13:15:00,
2013-05-26 09:30:00,55.9,50.0,30.25,NW,318,3.0,5.0,80,0.00,,,0.00,206,weatherlink.com 1.10,2013-05-26 13:30:00,
2013-05-26 09:46:00,56.3,49.0,30.25,NNW,340,0.0,4.0,77,0.00,,,0.00,169,weatherlink.com 1.10,2013-05-26 13:46:00,
2013-05-26 10:01:00,56.8,49.0,30.25,North,355,4.0,4.0,76,0.00,,,0.00,158,weatherlink.com 1.10,2013-05-26 14:01:00,
2013-05-26 10:16:00,57.4,48.0,30.26,NNW,344,2.0,5.0,72,0.00,,,0.00,204,weatherlink.com 1.10,2013-05-26 14:16:00,
2013-05-26 10:31:00,58.2,48.0,30.26,ENE,57,1.0,3.0,68,0.00,,,0.00,306,weatherlink.com 1.10,2013-05-26 14:31:00,
2013-05-26 10:46:00,59.5,48.0,30.25,West,266,0.0,2.0,66,0.00,,,0.00,390,weatherlink.com 1.10,2013-05-26 14:46:00,
2013-05-26 11:01:00,60.9,49.0,30.26,ENE,65,0.0,2.0,64,0.00,,,0.00,380,weatherlink.com 1.10,2013-05-26 15:01:00,
2013-05-26 11:16:00,62.0,50.0,30.25,SSW,196,0.0,3.0,65,0.00,,,0.00,274,weatherlink.com 1.10,2013-05-26 15:16:00,
2013-05-26 11:31:00,62.8,48.0,30.25,NW,308,1.0,3.0,59,0.00,,,0.00,374,weatherlink.com 1.10,2013-05-26 15:31:00,
2013-05-26 11:46:00,63.5,50.0,30.26,NNW,334,2.0,3.0,61,0.00,,,0.00,510,weatherlink.com 1.10,2013-05-26 15:46:00,
2013-05-26 12:01:00,63.6,47.0,30.26,NNW,336,0.0,4.0,56,0.00,,,0.00,346,weatherlink.com 1.10,2013-05-26 16:01:00,
2013-05-26 12:16:00,64.6,48.0,30.26,NW,321,4.0,7.0,56,0.00,,,0.00,431,weatherlink.com 1.10,2013-05-26 16:16:00,
2013-05-26 12:31:00,65.6,49.0,30.26,NNW,340,3.0,7.0,55,0.00,,,0.00,478,weatherlink.com 1.10,2013-05-26 16:31:00,
2013-05-26 12:46:00,66.7,50.0,30.25,NNW,331,3.0,5.0,55,0.00,,,0.00,432,weatherlink.com 1.10,2013-05-26 16:46:00,
2013-05-26 13:01:00,67.6,49.0,30.25,NW,314,0.0,3.0,52,0.00,,,0.00,489,weatherlink.com 1.10,2013-05-26 17:01:00,
2013-05-26 13:16:00,67.8,48.0,30.25,NW,319,2.0,5.0,50,0.00,,,0.00,471,weatherlink.com 1.10,2013-05-26 17:16:00,
2013-05-26 13:31:00,68.9,50.0,30.24,WNW,300,1.0,5.0,51,0.00,,,0.00,1046,weatherlink.com 1.10,2013-05-26 17:31:00,
2013-05-26 13:46:00,68.6,51.0,30.24,NW,316,2.0,6.0,53,0.00,,,0.00,448,weatherlink.com 1.10,2013-05-26 17:46:00,
2013-05-26 14:01:00,69.5,48.0,30.23,NNE,24,3.0,6.0,46,0.00,,,0.00,956,weatherlink.com 1.10,2013-05-26 18:01:00,
2013-05-26 14:16:00,70.0,49.0,30.22,North,9,2.0,5.0,47,0.00,,,0.00,944,weatherlink.com 1.10,2013-05-26 18:16:00,
2013-05-26 14:31:00,71.0,48.0,30.21,West,265,0.0,7.0,44,0.00,,,0.00,937,weatherlink.com 1.10,2013-05-26 18:31:00,
2013-05-26 14:46:00,71.9,47.0,30.21,North,349,7.0,7.0,41,0.00,,,0.00,907,weatherlink.com 1.10,2013-05-26 18:46:00,
2013-05-26 15:01:00,72.3,49.0,30.20,North,360,4.0,8.0,44,0.00,,,0.00,853,weatherlink.com 1.10,2013-05-26 19:01:00,
2013-05-26 15:16:00,73.5,50.0,30.20,SW,230,4.0,6.0,43,0.00,,,0.00,860,weatherlink.com 1.10,2013-05-26 19:16:00,
2013-05-26 15:31:00,73.5,48.0,30.20,North,355,3.0,6.0,41,0.00,,,0.00,506,weatherlink.com 1.10,2013-05-26 19:31:00,
2013-05-26 15:47:00,74.2,48.0,30.19,West,278,4.0,5.0,40,0.00,,,0.00,677,weatherlink.com 1.10,2013-05-26 19:47:00,
2013-05-26 16:02:00,73.5,52.0,30.19,North,349,6.0,6.0,47,0.00,,,0.00,526,weatherlink.com 1.10,2013-05-26 20:02:00,
2013-05-26 16:17:00,73.6,50.0,30.18,WNW,302,6.0,7.0,43,0.00,,,0.00,884,weatherlink.com 1.10,2013-05-26 20:17:00,
2013-05-26 16:32:00,74.6,49.0,30.18,West,275,5.0,9.0,41,0.00,,,0.00,742,weatherlink.com 1.10,2013-05-26 20:32:00,
2013-05-26 16:47:00,75.7,49.0,30.18,WSW,258,2.0,8.0,39,0.00,,,0.00,728,weatherlink.com 1.10,2013-05-26 20:47:00,
2013-05-26 17:02:00,74.8,49.0,30.18,WSW,249,4.0,7.0,40,0.00,,,0.00,643,weatherlink.com 1.10,2013-05-26 21:02:00,
2013-05-26 17:17:00,75.2,44.0,30.17,West,278,2.0,6.0,33,0.00,,,0.00,202,weatherlink.com 1.10,2013-05-26 21:17:00,
2013-05-26 17:32:00,75.5,48.0,30.17,NW,315,1.0,7.0,38,0.00,,,0.00,425,weatherlink.com 1.10,2013-05-26 21:32:00,
2013-05-26 17:47:00,75.7,45.0,30.17,NW,323,4.0,8.0,34,0.00,,,0.00,478,weatherlink.com 1.10,2013-05-26 21:47:00,
2013-05-26 18:02:00,75.7,46.0,30.16,NW,321,0.0,6.0,35,0.00,,,0.00,427,weatherlink.com 1.10,2013-05-26 22:02:00,
2013-05-26 18:17:00,75.7,46.0,30.16,WSW,258,0.0,7.0,35,0.00,,,0.00,383,weatherlink.com 1.10,2013-05-26 22:17:00,
2013-05-26 18:32:00,75.8,43.0,30.16,SW,233,2.0,5.0,31,0.00,,,0.00,339,weatherlink.com 1.10,2013-05-26 22:32:00,
2013-05-26 18:47:00,75.9,46.0,30.16,WNW,301,1.0,4.0,34,0.00,,,0.00,287,weatherlink.com 1.10,2013-05-26 22:47:00,
2013-05-26 19:02:00,75.5,48.0,30.16,WNW,294,2.0,5.0,38,0.00,,,0.00,232,weatherlink.com 1.10,2013-05-26 23:02:00,
2013-05-26 19:17:00,75.2,50.0,30.15,NNW,334,0.0,3.0,42,0.00,,,0.00,179,weatherlink.com 1.10,2013-05-26 23:17:00,
2013-05-26 19:32:00,75.4,53.0,30.16,North,360,0.0,2.0,45,0.00,,,0.00,109,weatherlink.com 1.10,2013-05-26 23:32:00,
2013-05-26 19:47:00,73.9,52.0,30.16,NE,46,0.0,1.0,46,0.00,,,0.00,63,weatherlink.com 1.10,2013-05-26 23:47:00,
2013-05-26 20:02:00,72.3,53.0,30.15,SE,131,0.0,1.0,50,0.00,,,0.00,28,weatherlink.com 1.10,2013-05-27 00:02:00,
2013-05-26 20:17:00,69.5,53.0,30.16,NW,304,0.0,2.0,56,0.00,,,0.00,16,weatherlink.com 1.10,2013-05-27 00:17:00,
2013-05-26 20:32:00,66.2,53.0,30.16,ENE,64,0.0,1.0,62,0.00,,,0.00,7,weatherlink.com 1.10,2013-05-27 00:32:00,
2013-05-26 20:47:00,64.0,52.0,30.16,SSW,208,0.0,0.0,65,0.00,,,0.00,0,weatherlink.com 1.10,2013-05-27 00:47:00,
2013-05-26 21:02:00,61.9,51.0,30.16,ENE,70,0.0,1.0,68,0.00,,,0.00,0,weatherlink.com 1.10,2013-05-27 01:02:00,
2013-05-26 21:17:00,61.4,51.0,30.17,ESE,123,2.0,4.0,68,0.00,,,0.00,0,weatherlink.com 1.10,2013-05-27 01:17:00,
2013-05-26 21:32:00,60.4,51.0,30.17,ESE,107,0.0,2.0,70,0.00,,,0.00,0,weatherlink.com 1.10,2013-05-27 01:32:00,
2013-05-26 21:47:00,59.1,50.0,30.18,ESE,108,1.0,3.0,71,0.00,,,0.00,0,weatherlink.com 1.10,2013-05-27 01:47:00,
2013-05-26 22:02:00,58.7,50.0,30.18,SE,127,1.0,3.0,72,0.00,,,0.00,0,weatherlink.com 1.10,2013-05-27 02:02:00,
2013-05-26 22:17:00,58.4,50.0,30.19,East,100,2.0,3.0,73,0.00,,,0.00,0,weatherlink.com 1.10,2013-05-27 02:17:00,
2013-05-26 22:32:00,57.7,49.0,30.19,East,100,1.0,3.0,74,0.00,,,0.00,0,weatherlink.com 1.10,2013-05-27 02:32:00,
2013-05-26 22:47:00,57.5,49.0,30.19,East,98,1.0,3.0,72,0.00,,,0.00,0,weatherlink.com 1.10,2013-05-27 02:47:00,
2013-05-26 23:02:00,56.8,49.0,30.20,East,99,0.0,0.0,75,0.00,,,0.00,0,weatherlink.com 1.10,2013-05-27 03:02:00,
2013-05-26 23:17:00,55.5,49.0,30.20,East,99,0.0,0.0,78,0.00,,,0.00,0,weatherlink.com 1.10,2013-05-27 03:17:00,
2013-05-26 23:32:00,54.3,49.0,30.20,East,99,0.0,0.0,81,0.00,,,0.00,0,weatherlink.com 1.10,2013-05-27 03:32:00,
2013-05-26 23:47:00,53.7,48.0,30.20,East,99,0.0,0.0,82,0.00,,,0.00,0,weatherlink.com 1.10,2013-05-27 03:47:00,